createdAt,value
2023-03-06T00:02:01.992Z,5.30
2023-03-06T00:04:29.256Z,5.50
2023-03-06T00:06:56.470Z,5.50
2023-03-06T00:14:18.868Z,5.00
2023-03-06T00:21:42.232Z,5.00
2023-03-06T00:34:00.035Z,5.00
2023-03-06T00:36:27.368Z,5.20
2023-03-06T00:38:54.640Z,5.20
2023-03-06T00:41:22.013Z,5.40
2023-03-06T00:43:50.777Z,4.90
2023-03-06T00:46:18.040Z,5.10
2023-03-06T00:48:45.391Z,5.00
2023-03-06T00:51:14.026Z,5.10
2023-03-06T00:56:09.208Z,5.40
2023-03-06T01:01:05.270Z,5.40
2023-03-06T01:15:52.324Z,5.10
2023-03-06T01:18:21.934Z,5.20
2023-03-06T01:20:49.208Z,5.40
2023-03-06T01:23:16.511Z,5.40
2023-03-06T01:25:43.762Z,5.30
2023-03-06T01:28:11.428Z,5.30
2023-03-06T01:30:38.699Z,5.30
2023-03-06T01:40:36.043Z,5.00
2023-03-06T01:43:10.767Z,5.30
2023-03-06T01:45:38.105Z,5.00
2023-03-06T01:48:05.431Z,5.20
2023-03-06T01:53:01.648Z,4.90
2023-03-06T01:55:33.838Z,4.80
2023-03-06T01:58:07.258Z,4.90
2023-03-06T02:00:34.947Z,4.90
2023-03-06T02:03:07.843Z,4.90
2023-03-06T02:05:41.592Z,4.80
2023-03-06T02:08:12.914Z,4.70
2023-03-06T02:10:50.068Z,4.70
2023-03-06T02:13:17.340Z,4.90
2023-03-06T02:20:51.306Z,4.70
2023-03-06T02:23:38.884Z,4.60
2023-03-06T02:26:08.444Z,4.50
2023-03-06T02:36:05.534Z,4.30
2023-03-06T02:38:48.991Z,3.60
2023-03-06T02:43:48.790Z,3.90
2023-03-06T03:03:31.582Z,3.50
2023-03-06T03:06:00.218Z,3.60
2023-03-06T03:08:32.802Z,3.60
2023-03-06T03:11:04.056Z,3.70
2023-03-06T03:13:38.702Z,3.50
2023-03-06T03:16:11.670Z,3.30
2023-03-06T03:18:38.984Z,3.30
2023-03-06T03:21:11.736Z,3.20
2023-03-06T03:26:21.148Z,3.40
2023-03-06T03:31:23.169Z,3.20
2023-03-06T03:36:20.715Z,3.00
2023-03-06T03:41:17.187Z,3.30
2023-03-06T03:46:12.426Z,2.90
2023-03-06T03:48:39.866Z,2.90
2023-03-06T03:51:10.241Z,2.60
2023-03-06T03:53:41.074Z,3.10
2023-03-06T03:56:10.193Z,3.10
2023-03-06T04:01:12.998Z,2.70
2023-03-06T04:03:41.127Z,2.80
2023-03-06T04:06:09.855Z,2.80
2023-03-06T04:11:05.206Z,3.00
2023-03-06T04:18:30.704Z,2.60
2023-03-06T04:21:02.728Z,2.90
2023-03-06T04:23:31.920Z,2.70
2023-03-06T04:25:59.614Z,2.70
2023-03-06T04:28:27.242Z,2.80
2023-03-06T04:48:16.995Z,2.50
2023-03-06T04:50:45.057Z,2.30
2023-03-06T04:55:41.785Z,2.40
2023-03-06T04:58:11.683Z,2.20
2023-03-06T05:03:06.758Z,2.30
2023-03-06T05:30:13.032Z,2.10
2023-03-06T05:35:08.353Z,1.90
2023-03-06T05:40:06.598Z,1.90
2023-03-06T05:45:02.590Z,2.00
2023-03-06T05:52:25.179Z,2.20
2023-03-06T05:54:54.468Z,2.10
2023-03-06T05:57:23.141Z,2.50
2023-03-06T06:02:19.454Z,2.30
2023-03-06T06:07:16.161Z,2.30
2023-03-06T06:09:45.666Z,2.10
2023-03-06T06:12:13.295Z,2.50
2023-03-06T06:24:32.019Z,2.40
2023-03-06T06:27:02.004Z,2.20
2023-03-06T06:29:31.333Z,2.60
2023-03-06T06:31:59.892Z,2.70
2023-03-06T06:34:28.099Z,2.50
2023-03-06T06:39:24.397Z,2.50
2023-03-06T06:42:05.954Z,2.50
2023-03-06T06:44:38.066Z,2.90
2023-03-06T06:47:24.580Z,2.60
2023-03-06T06:49:54.710Z,2.90
2023-03-06T06:52:23.848Z,2.60
2023-03-06T06:54:52.133Z,2.70
2023-03-06T06:57:19.432Z,2.90
2023-03-06T07:02:16.380Z,2.90
2023-03-06T07:05:02.109Z,3.00
2023-03-06T07:07:31.448Z,3.30
2023-03-06T07:09:58.753Z,3.10
2023-03-06T07:12:26.091Z,3.10
2023-03-06T07:14:53.384Z,3.40
2023-03-06T07:17:20.774Z,3.30
2023-03-06T07:19:48.514Z,3.60
2023-03-06T07:22:16.057Z,4.70
2023-03-06T07:24:43.314Z,3.50
2023-03-06T07:32:05.999Z,3.50
2023-03-06T07:34:33.295Z,3.60
2023-03-06T07:39:30.038Z,3.70
2023-03-06T07:41:58.712Z,3.60
2023-03-06T07:44:26.888Z,3.60
2023-03-06T07:49:22.217Z,3.50
2023-03-06T07:51:49.955Z,3.70
2023-03-06T07:56:44.925Z,4.00
2023-03-06T08:01:41.001Z,4.00
2023-03-06T08:04:08.329Z,4.30
2023-03-06T08:06:38.136Z,4.00
2023-03-06T08:09:05.443Z,3.90
2023-03-06T08:11:33.613Z,4.20
2023-03-06T08:14:01.078Z,4.00
2023-03-06T08:16:31.664Z,4.30
2023-03-06T08:18:59.072Z,5.30
2023-03-06T08:21:28.562Z,4.30
2023-03-06T08:23:56.563Z,4.10
2023-03-06T08:26:26.852Z,4.10
2023-03-06T08:28:56.714Z,4.50
2023-03-06T08:31:30.061Z,4.20
2023-03-06T08:33:59.704Z,4.80
2023-03-06T08:38:55.287Z,4.70
2023-03-06T08:41:22.856Z,4.70
2023-03-06T08:43:50.764Z,4.50
2023-03-06T08:46:18.878Z,5.80
2023-03-06T08:48:48.135Z,4.90
2023-03-06T08:51:16.727Z,4.90
2023-03-06T08:53:44.810Z,5.00
2023-03-06T08:56:22.858Z,5.20
2023-03-06T09:01:23.535Z,5.20
2023-03-06T09:03:53.282Z,5.30
2023-03-06T09:06:21.307Z,5.20
2023-03-06T09:08:51.514Z,5.30
2023-03-06T09:11:19.702Z,6.40
2023-03-06T09:13:47.113Z,5.50
2023-03-06T09:16:14.747Z,6.50
2023-03-06T09:18:42.121Z,7.50
2023-03-06T09:21:10.349Z,5.90
2023-03-06T09:23:39.469Z,5.50
2023-03-06T09:28:39.324Z,5.60
2023-03-06T09:31:09.705Z,5.60
2023-03-06T09:33:37.668Z,6.20
2023-03-06T09:36:06.537Z,5.80
2023-03-06T09:38:34.435Z,5.90
2023-03-06T09:41:13.580Z,6.10
2023-03-06T09:43:45.442Z,6.20
2023-03-06T09:46:31.323Z,6.50
2023-03-06T09:49:23.197Z,6.70
2023-03-06T09:51:50.404Z,6.70
2023-03-06T09:54:24.451Z,6.50
2023-03-06T09:56:51.714Z,7.20
2023-03-06T09:59:20.717Z,6.80
2023-03-06T10:02:07.258Z,7.00
2023-03-06T10:04:41.765Z,6.80
2023-03-06T10:07:27.364Z,7.00
2023-03-06T10:10:01.175Z,7.00
2023-03-06T10:12:37.941Z,7.10
2023-03-06T10:15:28.589Z,7.30
2023-03-06T10:17:56.924Z,7.20
2023-03-06T10:20:36.926Z,7.70
2023-03-06T10:23:25.028Z,7.20
2023-03-06T10:26:02.297Z,7.40
2023-03-06T10:29:08.287Z,9.00
2023-03-06T10:31:38.735Z,7.30
2023-03-06T10:34:19.253Z,8.10
2023-03-06T10:36:46.556Z,7.40
2023-03-06T10:39:20.463Z,7.60
2023-03-06T10:41:50.059Z,8.80
2023-03-06T10:44:19.831Z,7.70
2023-03-06T10:46:49.854Z,8.10
2023-03-06T10:49:38.422Z,8.00
2023-03-06T10:52:20.052Z,7.90
2023-03-06T10:54:48.467Z,8.10
2023-03-06T10:57:32.298Z,8.00
2023-03-06T11:00:04.698Z,8.20
2023-03-06T11:05:01.908Z,8.30
2023-03-06T11:07:35.193Z,8.80
2023-03-06T11:10:19.863Z,8.60
2023-03-06T11:13:19.186Z,8.70
2023-03-06T11:16:02.304Z,8.60
2023-03-06T11:18:34.991Z,8.20
2023-03-06T11:21:07.141Z,8.50
2023-03-06T11:23:46.709Z,8.50
2023-03-06T11:26:16.901Z,8.40
2023-03-06T11:29:00.346Z,8.10
2023-03-06T11:31:38.058Z,8.30
2023-03-06T11:34:09.799Z,8.60
2023-03-06T11:36:47.821Z,10.20
2023-03-06T11:39:53.273Z,8.70
2023-03-06T11:42:24.325Z,8.80
2023-03-06T11:45:22.255Z,9.10
2023-03-06T11:48:12.689Z,8.70
2023-03-06T11:50:42.574Z,9.10
2023-03-06T11:53:15.248Z,8.90
2023-03-06T11:56:03.814Z,9.50
2023-03-06T11:59:07.771Z,9.00
2023-03-06T12:02:01.965Z,8.90
2023-03-06T12:04:49.518Z,9.00
2023-03-06T12:07:21.764Z,9.10
2023-03-06T12:10:01.409Z,9.10
2023-03-06T12:12:53.621Z,9.70
2023-03-06T12:15:56.910Z,9.60
2023-03-06T12:18:27.995Z,11.70
2023-03-06T12:21:25.699Z,9.60
2023-03-06T12:24:11.698Z,9.80
2023-03-06T12:26:39.323Z,9.80
2023-03-06T12:29:33.518Z,10.30
2023-03-06T12:32:26.082Z,9.80
2023-03-06T12:35:19.015Z,9.70
2023-03-06T12:38:15.533Z,9.70
2023-03-06T12:40:45.832Z,10.20
2023-03-06T12:43:15.990Z,10.10
2023-03-06T12:45:45.410Z,9.80
2023-03-06T12:48:23.182Z,10.00
2023-03-06T12:50:51.980Z,9.70
2023-03-06T12:53:27.765Z,9.70
2023-03-06T12:55:56.953Z,10.20
2023-03-06T12:58:30.690Z,10.50
2023-03-06T13:01:14.204Z,10.20
2023-03-06T13:04:10.605Z,9.90
2023-03-06T13:07:15.483Z,9.70
2023-03-06T13:10:05.031Z,9.40
2023-03-06T13:12:50.643Z,9.30
2023-03-06T13:15:39.767Z,9.20
2023-03-06T13:18:33.242Z,9.30
2023-03-06T13:21:01.007Z,8.90
2023-03-06T13:23:37.301Z,8.80
2023-03-06T13:26:31.481Z,8.70
2023-03-06T13:28:58.899Z,8.40
2023-03-06T13:31:38.150Z,8.50
2023-03-06T13:34:37.877Z,8.30
2023-03-06T13:37:17.222Z,8.30
2023-03-06T13:39:57.187Z,8.50
2023-03-06T13:42:36.492Z,8.60
2023-03-06T13:45:17.131Z,8.70
2023-03-06T13:48:21.445Z,9.20
2023-03-06T13:50:46.438Z,9.40
2023-03-06T13:53:38.429Z,9.40
2023-03-06T13:56:30.917Z,9.60
2023-03-06T13:59:14.244Z,10.00
2023-03-06T14:02:02.532Z,9.80
2023-03-06T14:04:58.103Z,9.40
2023-03-06T14:07:30.810Z,9.60
2023-03-06T14:10:09.965Z,7.80
2023-03-06T14:12:43.134Z,9.40
2023-03-06T14:15:44.872Z,9.50
2023-03-06T14:18:21.444Z,9.60
2023-03-06T14:21:01.747Z,9.20
2023-03-06T14:23:35.398Z,9.60
2023-03-06T14:26:15.410Z,9.30
2023-03-06T14:28:44.712Z,9.30
2023-03-06T14:31:18.215Z,9.30
2023-03-06T14:33:55.108Z,9.60
2023-03-06T14:36:43.096Z,9.50
2023-03-06T14:39:34.972Z,9.50
2023-03-06T14:42:20.599Z,9.60
2023-03-06T14:44:49.941Z,9.80
2023-03-06T14:47:28.188Z,9.60
2023-03-06T14:50:17.452Z,9.60
2023-03-06T14:52:45.073Z,9.50
2023-03-06T14:55:20.244Z,9.40
2023-03-06T14:57:51.983Z,9.40
2023-03-06T15:00:22.370Z,9.30
2023-03-06T15:02:51.989Z,9.20
2023-03-06T15:05:30.893Z,9.00
2023-03-06T15:08:08.732Z,8.60
2023-03-06T15:10:37.296Z,8.20
2023-03-06T15:13:25.219Z,8.00
2023-03-06T15:15:59.638Z,7.80
2023-03-06T15:18:40.131Z,7.70
2023-03-06T15:21:19.462Z,7.60
2023-03-06T15:23:49.696Z,7.60
2023-03-06T15:26:28.723Z,8.70
2023-03-06T15:29:08.932Z,7.60
2023-03-06T15:31:42.668Z,7.60
2023-03-06T15:34:10.061Z,7.60
2023-03-06T15:36:43.206Z,7.70
2023-03-06T15:39:33.335Z,7.90
2023-03-06T15:42:27.958Z,7.70
2023-03-06T15:45:03.277Z,7.70
2023-03-06T15:47:30.590Z,7.80
2023-03-06T15:49:58.056Z,7.90
2023-03-06T15:52:25.503Z,8.20
2023-03-06T15:54:56.007Z,8.10
2023-03-06T15:57:33.717Z,7.70
2023-03-06T16:00:01.508Z,8.50
2023-03-06T16:02:39.034Z,8.20
2023-03-06T16:05:16.863Z,8.10
2023-03-06T16:07:44.622Z,8.60
2023-03-06T16:10:14.814Z,9.10
2023-03-06T16:13:10.521Z,8.30
2023-03-06T16:15:41.213Z,8.80
2023-03-06T16:18:11.733Z,8.90
2023-03-06T16:23:10.433Z,8.40
2023-03-06T16:25:43.202Z,8.50
2023-03-06T16:28:14.316Z,9.30
2023-03-06T16:30:43.893Z,9.80
2023-03-06T16:33:13.431Z,8.30
2023-03-06T16:35:41.404Z,8.50
2023-03-06T16:38:10.480Z,8.10
2023-03-06T16:40:41.619Z,8.10
2023-03-06T16:43:10.938Z,7.40
2023-03-06T16:45:40.826Z,8.10
2023-03-06T16:48:13.771Z,8.10
2023-03-06T16:50:41.332Z,8.70
2023-03-06T16:53:08.921Z,8.50
2023-03-06T16:55:36.420Z,8.00
2023-03-06T16:58:04.262Z,8.20
2023-03-06T17:00:33.225Z,8.00
2023-03-06T17:03:02.747Z,8.40
2023-03-06T17:05:33.307Z,8.00
2023-03-06T17:08:02.642Z,8.00
2023-03-06T17:10:30.544Z,7.90
2023-03-06T17:12:57.883Z,9.20
2023-03-06T17:15:25.330Z,8.20
2023-03-06T17:17:53.866Z,8.00
2023-03-06T17:20:23.717Z,8.00
2023-03-06T17:22:51.065Z,7.90
2023-03-06T17:25:18.827Z,8.50
2023-03-06T17:27:46.461Z,7.80
2023-03-06T17:30:14.146Z,7.90
2023-03-06T17:32:41.598Z,7.80
2023-03-06T17:35:10.155Z,7.70
2023-03-06T17:37:37.682Z,7.80
2023-03-06T17:40:08.477Z,8.10
2023-03-06T17:42:36.239Z,7.60
2023-03-06T17:45:04.669Z,7.90
2023-03-06T17:47:32.020Z,7.60
2023-03-06T17:49:59.925Z,7.30
2023-03-06T17:52:27.608Z,7.70
2023-03-06T17:54:54.998Z,7.60
2023-03-06T17:57:22.327Z,7.50
2023-03-06T17:59:49.778Z,7.50
2023-03-06T18:02:17.681Z,7.70
2023-03-06T18:04:45.134Z,7.50
2023-03-06T18:07:12.842Z,7.50
2023-03-06T18:09:42.824Z,7.50
2023-03-06T18:12:13.428Z,8.40
2023-03-06T18:14:40.872Z,5.30
2023-03-06T18:17:09.147Z,7.60
2023-03-06T18:19:38.046Z,7.60
2023-03-06T18:22:05.481Z,7.60
2023-03-06T18:27:00.472Z,7.40
2023-03-06T18:29:27.842Z,7.30
2023-03-06T18:31:56.845Z,7.70
2023-03-06T18:34:24.263Z,7.40
2023-03-06T18:36:52.872Z,7.50
2023-03-06T18:39:21.529Z,7.40
2023-03-06T18:41:48.909Z,7.40
2023-03-06T18:44:17.546Z,6.80
2023-03-06T18:46:45.564Z,6.90
2023-03-06T18:49:14.207Z,6.70
2023-03-06T18:51:43.209Z,6.70
2023-03-06T18:54:11.395Z,6.80
2023-03-06T18:56:40.372Z,7.10
2023-03-06T18:59:08.592Z,6.60
2023-03-06T19:01:37.692Z,6.50
2023-03-06T19:04:05.525Z,7.10
2023-03-06T19:06:32.959Z,6.80
2023-03-06T19:09:02.102Z,7.50
2023-03-06T19:11:29.552Z,6.70
2023-03-06T19:13:56.879Z,7.50
2023-03-06T19:16:27.204Z,6.60
2023-03-06T19:18:57.783Z,7.00
2023-03-06T19:21:27.466Z,6.90
2023-03-06T19:23:56.061Z,6.70
2023-03-06T19:26:24.222Z,6.80
2023-03-06T19:28:52.606Z,6.70
2023-03-06T19:31:25.464Z,7.70
2023-03-06T19:33:54.287Z,7.00
2023-03-06T19:36:26.804Z,8.00
2023-03-06T19:38:56.012Z,6.10
2023-03-06T19:41:23.805Z,6.10
2023-03-06T19:43:53.753Z,6.40
2023-03-06T19:46:22.756Z,5.90
2023-03-06T19:48:58.686Z,7.40
2023-03-06T19:51:27.284Z,4.50
2023-03-06T19:53:56.895Z,5.90
2023-03-06T19:56:27.136Z,6.00
2023-03-06T19:58:55.283Z,6.30
2023-03-06T20:01:25.049Z,6.30
2023-03-06T20:03:59.415Z,6.00
2023-03-06T20:06:30.305Z,6.20
2023-03-06T20:08:57.810Z,6.00
2023-03-06T20:11:29.685Z,6.20
2023-03-06T20:14:00.498Z,5.90
2023-03-06T20:16:29.569Z,5.90
2023-03-06T20:18:58.918Z,5.90
2023-03-06T20:21:28.318Z,5.80
2023-03-06T20:23:58.225Z,5.70
2023-03-06T20:26:28.272Z,5.90
2023-03-06T20:28:56.778Z,6.20
2023-03-06T20:31:27.669Z,6.40
2023-03-06T20:33:57.686Z,6.00
2023-03-06T20:36:29.287Z,6.40
2023-03-06T20:38:59.150Z,6.10
2023-03-06T20:41:32.408Z,6.40
2023-03-06T20:44:02.195Z,6.40
2023-03-06T20:46:30.238Z,6.40
2023-03-06T20:49:00.984Z,6.20
2023-03-06T20:51:36.220Z,7.00
2023-03-06T20:54:03.958Z,6.30
2023-03-06T20:56:33.958Z,6.20
2023-03-06T20:59:02.057Z,6.00
2023-03-06T21:01:32.439Z,6.90
2023-03-06T21:04:01.014Z,6.30
2023-03-06T21:06:29.295Z,6.70
2023-03-06T21:08:57.704Z,6.40
2023-03-06T21:11:25.428Z,6.10
2023-03-06T21:13:53.716Z,6.30
2023-03-06T21:16:24.142Z,6.40
2023-03-06T21:18:54.019Z,6.30
2023-03-06T21:21:24.689Z,6.50
2023-03-06T21:23:52.236Z,6.20
2023-03-06T21:26:21.974Z,6.20
2023-03-06T21:28:49.762Z,7.40
2023-03-06T21:31:18.914Z,6.10
2023-03-06T21:33:47.440Z,6.50
2023-03-06T21:36:15.892Z,6.30
2023-03-06T21:38:43.196Z,6.50
2023-03-06T21:41:11.990Z,6.60
2023-03-06T21:43:40.514Z,6.20
2023-03-06T21:46:08.036Z,6.10
2023-03-06T21:48:35.969Z,6.20
2023-03-06T21:51:05.067Z,6.90
2023-03-06T21:53:32.382Z,6.10
2023-03-06T21:56:03.672Z,6.10
2023-03-06T21:58:31.602Z,6.10
2023-03-06T22:00:59.624Z,6.70
2023-03-06T22:03:28.745Z,6.50
2023-03-06T22:05:56.772Z,6.20
2023-03-06T22:08:25.140Z,7.40
2023-03-06T22:10:52.504Z,6.20
2023-03-06T22:13:20.880Z,6.10
2023-03-06T22:15:55.219Z,6.30
2023-03-06T22:18:23.004Z,6.30
2023-03-06T22:20:50.315Z,6.00
2023-03-06T22:23:17.620Z,7.20
2023-03-06T22:25:45.032Z,6.10
2023-03-06T22:28:13.162Z,6.50
2023-03-06T22:30:40.671Z,6.20
2023-03-06T22:33:08.132Z,6.00
2023-03-06T22:35:35.818Z,6.30
2023-03-06T22:38:04.529Z,6.00
2023-03-06T22:40:33.624Z,7.60
2023-03-06T22:43:01.016Z,6.30
2023-03-06T22:45:28.376Z,6.20
2023-03-06T22:48:05.574Z,6.10
2023-03-06T22:53:05.615Z,5.90
2023-03-06T22:55:35.252Z,6.10
2023-03-06T22:58:02.734Z,6.60
2023-03-06T23:00:30.066Z,6.00
2023-03-06T23:02:57.370Z,6.40
2023-03-06T23:05:24.747Z,6.10
2023-03-06T23:10:20.219Z,6.00
2023-03-06T23:13:06.464Z,6.30
2023-03-06T23:15:52.735Z,6.10
2023-03-06T23:18:39.291Z,6.10
2023-03-06T23:21:25.954Z,6.40
2023-03-06T23:24:11.684Z,6.30
2023-03-06T23:26:40.664Z,6.20
2023-03-06T23:29:08.162Z,6.00
2023-03-06T23:31:35.665Z,6.20
2023-03-06T23:34:03.947Z,6.00
2023-03-06T23:36:31.741Z,5.90
2023-03-06T23:38:59.228Z,6.60
2023-03-06T23:41:26.754Z,6.20
2023-03-06T23:43:55.378Z,6.40
2023-03-06T23:46:22.983Z,6.10
2023-03-06T23:48:50.576Z,6.10
2023-03-06T23:51:21.080Z,6.10
2023-03-06T23:53:56.940Z,6.10
2023-03-06T23:56:25.972Z,6.30
2023-03-06T23:58:54.499Z,6.10
